Time;durP1;ratioP1;P1;durP2;ratioP2;P2;SDS_P1;SDS_P2;PMS_P1;PMS_P2;Temp;Humidity;BMP_temperature;BMP_pressure;BME280_temperature;BME280_humidity;BME280_pressure;Samples;Min_cycle;Max_cycle;Signal;HPM_P1;HPM_P2
2022/11/30 00:01:18;;;;;;;60.10;25.70;;;8.40;99.90;;;;;;6065884;23;93085;-73
2022/11/30 00:03:46;;;;;;;52.60;24.23;;;8.40;99.90;;;;;;6087763;23;94804;-73
2022/11/30 00:06:15;;;;;;;56.83;24.27;;;8.40;99.90;;;;;;6065485;23;101575;-73
2022/11/30 00:08:42;;;;;;;57.50;25.05;;;8.40;99.90;;;;;;6088732;23;95642;-73
2022/11/30 00:11:11;;;;;;;49.97;20.42;;;8.40;99.90;;;;;;6088474;23;95703;-73
2022/11/30 00:13:38;;;;;;;52.28;23.85;;;8.40;99.90;;;;;;6066198;23;92370;-73
2022/11/30 00:16:06;;;;;;;47.00;23.75;;;8.40;99.90;;;;;;6088858;23;92490;-73
2022/11/30 00:18:33;;;;;;;50.67;23.77;;;8.40;99.90;;;;;;6066039;23;93156;-73
2022/11/30 00:21:01;;;;;;;50.65;22.73;;;8.40;99.90;;;;;;6066485;23;93069;-73
2022/11/30 00:23:37;;;;;;;46.65;24.25;;;8.40;99.90;;;;;;6089059;23;92360;-73
2022/11/30 00:26:06;;;;;;;46.75;24.48;;;8.40;99.90;;;;;;6088955;23;92542;-73
2022/11/30 00:28:35;;;;;;;44.95;22.67;;;8.40;99.90;;;;;;6064424;23;95442;-73
2022/11/30 00:31:04;;;;;;;45.22;23.42;;;8.30;99.90;;;;;;6064049;23;95487;-73
2022/11/30 00:33:32;;;;;;;45.85;23.67;;;8.30;99.90;;;;;;6064646;23;92291;-73
2022/11/30 00:36:26;;;;;;;42.78;21.33;;;8.30;99.90;;;;;;6064342;23;92503;-73
2022/11/30 00:38:54;;;;;;;40.92;22.15;;;8.30;99.90;;;;;;6061613;23;92368;-73
2022/11/30 00:41:21;;;;;;;40.42;21.60;;;8.30;99.90;;;;;;6088414;23;95707;-73
2022/11/30 00:43:48;;;;;;;42.15;22.52;;;8.30;99.90;;;;;;6064666;23;92492;-73
2022/11/30 00:46:15;;;;;;;43.75;22.77;;;8.20;99.90;;;;;;6064265;23;91733;-73
2022/11/30 00:48:42;;;;;;;39.97;21.42;;;8.30;99.90;;;;;;6064178;23;98833;-73
2022/11/30 00:51:10;;;;;;;42.05;22.40;;;8.30;99.90;;;;;;6064097;23;92992;-73
2022/11/30 00:53:38;;;;;;;40.05;21.75;;;8.30;99.90;;;;;;6063148;23;94829;-73
2022/11/30 00:56:06;;;;;;;39.22;23.08;;;8.30;99.90;;;;;;6064431;23;92855;-73
2022/11/30 00:58:33;;;;;;;43.00;21.05;;;8.20;99.90;;;;;;6064313;23;93284;-73
2022/11/30 01:01:01;;;;;;;40.33;21.33;;;8.20;99.90;;;;;;6088667;23;93080;-73
2022/11/30 01:03:28;;;;;;;39.25;22.60;;;8.20;99.90;;;;;;6065832;23;92427;-73
2022/11/30 01:06:00;;;;;;;33.85;19.48;;;8.20;99.90;;;;;;6064766;23;92397;-73
2022/11/30 01:08:27;;;;;;;33.30;20.75;;;8.20;99.90;;;;;;6065621;23;92381;-73
2022/11/30 01:10:56;;;;;;;32.47;19.45;;;8.20;99.90;;;;;;6065468;23;110192;-73
2022/11/30 01:13:23;;;;;;;31.50;18.85;;;8.20;99.90;;;;;;6040442;23;92550;-74
2022/11/30 01:15:50;;;;;;;33.17;20.00;;;8.20;99.90;;;;;;6065999;23;92372;-73
2022/11/30 01:18:17;;;;;;;33.17;19.45;;;8.10;99.90;;;;;;6064126;23;95640;-73
2022/11/30 01:20:44;;;;;;;36.47;21.20;;;8.10;99.90;;;;;;6040068;23;95508;-73
2022/11/30 01:23:12;;;;;;;31.90;20.70;;;8.10;99.90;;;;;;6063920;23;92444;-73
2022/11/30 01:25:39;;;;;;;31.45;18.98;;;8.10;99.90;;;;;;6064478;23;92484;-74
2022/11/30 01:28:08;;;;;;;35.17;20.25;;;8.10;99.90;;;;;;6065769;23;93236;-73
2022/11/30 01:30:34;;;;;;;36.35;21.38;;;8.10;99.90;;;;;;6064117;23;92908;-73
2022/11/30 01:33:03;;;;;;;36.33;20.58;;;8.10;99.90;;;;;;6064495;23;92929;-73
2022/11/30 01:35:30;;;;;;;37.42;22.50;;;8.10;99.90;;;;;;6065145;23;103137;-73
2022/11/30 01:37:57;;;;;;;36.03;20.85;;;8.10;99.90;;;;;;6064197;23;93185;-73
2022/11/30 01:40:24;;;;;;;36.33;21.10;;;8.20;99.90;;;;;;6065647;23;92931;-73
2022/11/30 01:42:51;;;;;;;38.45;22.15;;;8.10;99.90;;;;;;6064507;23;94738;-73
2022/11/30 01:45:18;;;;;;;34.90;21.42;;;8.20;99.90;;;;;;6065717;23;92380;-73
2022/11/30 01:47:50;;;;;;;37.00;21.00;;;8.20;99.90;;;;;;6065679;23;93095;-73
2022/11/30 01:50:37;;;;;;;27.38;15.88;;;8.20;99.90;;;;;;6065529;23;92886;-73
2022/11/30 01:53:08;;;;;;;34.65;19.20;;;8.20;99.90;;;;;;6088765;23;92445;-73
2022/11/30 01:55:39;;;;;;;31.63;18.17;;;8.10;99.90;;;;;;6088513;23;92367;-73
2022/11/30 01:58:31;;;;;;;31.27;18.60;;;8.00;99.90;;;;;;6064033;23;93004;-73
2022/11/30 02:00:58;;;;;;;30.15;17.88;;;8.00;99.90;;;;;;6066114;23;93167;-73
2022/11/30 02:03:35;;;;;;;30.50;17.00;;;8.00;99.90;;;;;;6065481;23;92423;-73
2022/11/30 02:06:02;;;;;;;37.90;20.13;;;8.00;99.90;;;;;;6088910;23;93095;-73
2022/11/30 02:08:30;;;;;;;33.13;19.42;;;7.90;99.90;;;;;;6062022;23;97355;-74
2022/11/30 02:11:02;;;;;;;37.17;19.63;;;8.00;99.90;;;;;;6088134;23;98097;-73
2022/11/30 02:13:48;;;;;;;34.60;18.42;;;7.90;99.90;;;;;;6064102;23;92351;-73
2022/11/30 02:16:59;;;;;;;40.50;21.38;;;7.90;99.90;;;;;;6065743;23;92854;-73
2022/11/30 02:19:55;;;;;;;38.83;19.10;;;8.00;99.90;;;;;;6088408;23;95487;-73
2022/11/30 02:22:31;;;;;;;38.63;20.80;;;8.00;99.90;;;;;;6063825;23;94076;-73
2022/11/30 02:25:01;;;;;;;39.33;21.60;;;7.90;99.90;;;;;;6063990;23;92857;-73
2022/11/30 02:27:46;;;;;;;39.10;22.17;;;7.90;99.90;;;;;;6064107;23;91557;-73
2022/11/30 02:30:19;;;;;;;45.50;21.02;;;8.00;99.90;;;;;;6088160;23;95729;-73
2022/11/30 02:33:06;;;;;;;40.87;22.00;;;8.00;99.90;;;;;;6065475;23;93034;-73
2022/11/30 02:35:37;;;;;;;39.97;20.85;;;8.00;99.90;;;;;;6086658;23;94836;-73
2022/11/30 02:38:05;;;;;;;44.03;22.73;;;8.00;99.90;;;;;;6065694;23;92303;-73
2022/11/30 02:40:32;;;;;;;39.55;21.38;;;8.00;99.90;;;;;;6065110;23;93296;-73
2022/11/30 02:43:03;;;;;;;36.55;19.17;;;8.00;99.90;;;;;;6065401;23;93123;-73
2022/11/30 02:45:54;;;;;;;39.83;21.52;;;8.00;99.90;;;;;;6063942;23;92359;-73
2022/11/30 02:48:36;;;;;;;40.72;20.60;;;8.00;99.90;;;;;;6065263;23;92373;-73
2022/11/30 02:51:08;;;;;;;35.72;19.00;;;8.00;99.90;;;;;;6065269;23;93191;-73
2022/11/30 02:53:35;;;;;;;37.53;20.70;;;7.90;99.90;;;;;;6064101;23;93003;-73
2022/11/30 02:56:03;;;;;;;34.10;19.42;;;7.90;99.90;;;;;;6064114;23;92906;-73
2022/11/30 02:58:30;;;;;;;38.17;20.35;;;7.90;99.90;;;;;;6063717;23;92543;-73
2022/11/30 03:00:57;;;;;;;38.95;19.85;;;7.90;99.90;;;;;;6062142;23;95614;-73
2022/11/30 03:03:24;;;;;;;34.03;17.45;;;7.90;99.90;;;;;;6087089;23;112206;-73
2022/11/30 03:05:51;;;;;;;38.53;20.80;;;7.80;99.90;;;;;;6063826;23;92288;-73
2022/11/30 03:08:18;;;;;;;36.20;20.67;;;7.80;99.90;;;;;;6065532;23;92355;-73
2022/11/30 03:10:45;;;;;;;40.15;22.25;;;7.80;99.90;;;;;;6064614;23;93086;-73
2022/11/30 03:13:11;;;;;;;40.63;21.88;;;7.80;99.90;;;;;;6064637;23;92993;-73
2022/11/30 03:15:38;;;;;;;39.03;21.48;;;7.80;99.90;;;;;;6066433;23;93004;-73
2022/11/30 03:18:05;;;;;;;40.38;21.90;;;7.80;99.90;;;;;;6065429;23;91719;-73
2022/11/30 03:20:32;;;;;;;38.72;20.02;;;7.80;99.90;;;;;;6064342;23;95803;-73
2022/11/30 03:23:02;;;;;;;38.08;19.40;;;7.90;99.90;;;;;;6064726;23;93034;-73
2022/11/30 03:25:29;;;;;;;41.60;21.00;;;7.90;99.90;;;;;;6064800;23;94785;-73
2022/11/30 03:27:57;;;;;;;44.22;22.15;;;7.90;99.90;;;;;;6066478;23;92396;-73
2022/11/30 03:30:24;;;;;;;46.13;21.67;;;7.90;99.90;;;;;;6066379;23;93179;-73
2022/11/30 03:32:51;;;;;;;39.60;21.58;;;7.90;99.90;;;;;;6064619;23;94044;-73
2022/11/30 03:35:18;;;;;;;37.30;20.75;;;7.90;99.90;;;;;;6088924;23;92455;-73
2022/11/30 03:37:46;;;;;;;44.42;24.20;;;7.90;99.90;;;;;;6064937;23;93125;-73
2022/11/30 03:40:13;;;;;;;44.90;22.30;;;7.90;99.90;;;;;;6040191;23;95929;-73
2022/11/30 03:42:40;;;;;;;38.55;19.70;;;8.00;99.90;;;;;;6064868;23;93071;-73
2022/11/30 03:45:07;;;;;;;41.58;22.80;;;8.00;99.90;;;;;;6066361;23;92478;-73
2022/11/30 03:47:34;;;;;;;45.70;22.67;;;8.00;99.90;;;;;;6088373;23;104829;-73
2022/11/30 03:50:01;;;;;;;34.28;19.33;;;8.00;99.90;;;;;;6063100;23;95671;-73
2022/11/30 03:52:28;;;;;;;39.50;20.52;;;8.00;99.90;;;;;;6064164;23;98061;-73
2022/11/30 03:54:55;;;;;;;35.13;20.50;;;7.90;99.90;;;;;;6066422;23;92963;-73
2022/11/30 03:57:22;;;;;;;42.03;21.77;;;7.90;99.90;;;;;;6064750;23;92377;-73
2022/11/30 03:59:49;;;;;;;37.45;20.40;;;7.90;99.90;;;;;;6088692;23;95068;-73
2022/11/30 04:02:16;;;;;;;39.70;20.73;;;7.90;99.90;;;;;;6040161;23;95677;-73
2022/11/30 04:04:43;;;;;;;37.75;21.83;;;8.00;99.90;;;;;;6065580;23;99993;-73
2022/11/30 04:07:09;;;;;;;39.63;21.67;;;7.90;99.90;;;;;;6040935;23;92137;-73
2022/11/30 04:09:36;;;;;;;37.53;21.60;;;8.00;99.90;;;;;;6064335;23;93144;-73
2022/11/30 04:12:03;;;;;;;38.33;21.27;;;7.90;99.90;;;;;;6064487;23;92906;-73
2022/11/30 04:14:30;;;;;;;38.95;20.13;;;7.90;99.90;;;;;;6063324;23;94779;-73
2022/11/30 04:16:57;;;;;;;40.60;21.50;;;7.90;99.90;;;;;;6066356;23;92794;-73
2022/11/30 04:19:24;;;;;;;33.28;18.15;;;8.00;99.90;;;;;;6066055;23;92316;-73
2022/11/30 04:21:51;;;;;;;39.33;20.17;;;7.90;99.90;;;;;;6088559;23;95724;-73
2022/11/30 04:24:18;;;;;;;35.80;19.55;;;7.80;99.90;;;;;;6089064;23;92495;-73
2022/11/30 04:26:45;;;;;;;28.25;16.92;;;7.80;99.90;;;;;;6065598;23;98784;-73
2022/11/30 04:29:12;;;;;;;35.42;20.90;;;7.80;99.90;;;;;;6064314;23;96304;-73
2022/11/30 04:31:38;;;;;;;35.08;18.83;;;7.80;99.90;;;;;;6066117;23;92777;-73
2022/11/30 04:34:05;;;;;;;34.15;19.00;;;7.80;99.90;;;;;;6064626;23;92438;-73
2022/11/30 04:36:32;;;;;;;31.52;16.58;;;7.80;99.90;;;;;;6064118;23;92448;-73
2022/11/30 04:38:59;;;;;;;33.67;17.92;;;7.90;99.90;;;;;;6063015;23;95489;-73
2022/11/30 04:41:26;;;;;;;31.33;18.13;;;7.90;99.90;;;;;;6065832;23;95283;-73
2022/11/30 04:43:53;;;;;;;30.80;19.10;;;7.90;99.90;;;;;;6065863;23;92363;-73
2022/11/30 04:46:20;;;;;;;30.75;18.10;;;7.90;99.90;;;;;;6066252;23;92317;-73
2022/11/30 04:48:47;;;;;;;30.73;17.90;;;7.90;99.90;;;;;;6065771;23;93225;-73
2022/11/30 04:51:14;;;;;;;28.83;18.90;;;7.90;99.90;;;;;;6064441;23;95603;-73
2022/11/30 04:53:41;;;;;;;33.13;19.58;;;8.00;99.90;;;;;;6065794;23;92316;-73
2022/11/30 04:56:10;;;;;;;30.60;19.38;;;7.90;99.90;;;;;;6066509;23;91686;-73
2022/11/30 04:58:38;;;;;;;31.50;19.48;;;7.90;99.90;;;;;;6065636;23;93043;-73
2022/11/30 05:01:06;;;;;;;31.45;18.40;;;7.90;99.90;;;;;;6088605;23;94262;-73
2022/11/30 05:03:33;;;;;;;33.63;20.42;;;7.90;99.90;;;;;;6064561;23;94688;-73
2022/11/30 05:05:59;;;;;;;29.50;18.45;;;7.90;99.90;;;;;;6064211;23;92468;-73
2022/11/30 05:08:26;;;;;;;27.88;18.00;;;7.90;99.90;;;;;;6088552;23;95602;-73
2022/11/30 05:10:54;;;;;;;28.83;17.02;;;7.80;99.90;;;;;;6063770;23;104391;-73
2022/11/30 05:13:22;;;;;;;30.77;18.83;;;7.90;99.90;;;;;;6065834;23;92459;-73
2022/11/30 05:15:51;;;;;;;30.00;19.17;;;7.80;99.90;;;;;;6065729;23;92414;-73
2022/11/30 05:18:18;;;;;;;33.00;18.77;;;7.80;99.90;;;;;;6064339;23;95681;-73
2022/11/30 05:20:50;;;;;;;32.17;18.50;;;7.80;99.90;;;;;;6064460;23;92892;-73
2022/11/30 05:23:18;;;;;;;30.25;18.50;;;7.80;99.90;;;;;;6064487;23;92485;-73
2022/11/30 05:25:45;;;;;;;31.42;18.33;;;7.80;99.90;;;;;;6065701;23;92440;-73
2022/11/30 05:28:13;;;;;;;32.88;18.90;;;7.70;99.90;;;;;;6086719;23;98477;-73
2022/11/30 05:30:41;;;;;;;33.17;18.90;;;7.80;99.90;;;;;;6039644;23;98208;-73
2022/11/30 05:33:08;;;;;;;30.83;18.58;;;7.80;99.90;;;;;;6065566;23;92433;-73
2022/11/30 05:35:35;;;;;;;29.48;17.70;;;7.70;99.90;;;;;;6039644;23;92488;-73
2022/11/30 05:38:03;;;;;;;31.55;17.92;;;7.80;99.90;;;;;;6064062;23;92904;-73
2022/11/30 05:40:31;;;;;;;33.40;19.35;;;7.80;99.90;;;;;;6065239;23;103878;-73
2022/11/30 05:43:00;;;;;;;37.28;19.90;;;7.80;99.90;;;;;;6064105;23;92478;-73
2022/11/30 05:45:27;;;;;;;33.00;19.25;;;7.90;99.90;;;;;;6089170;23;91646;-73
2022/11/30 05:47:54;;;;;;;33.47;19.38;;;7.80;99.90;;;;;;6088222;23;93095;-73
2022/11/30 05:50:21;;;;;;;32.97;17.80;;;7.90;99.90;;;;;;6065576;23;92901;-73
2022/11/30 05:52:59;;;;;;;32.47;18.40;;;7.90;99.90;;;;;;6062579;23;94888;-73
2022/11/30 05:55:28;;;;;;;31.83;17.38;;;7.90;99.90;;;;;;6088671;23;92450;-73
2022/11/30 05:57:55;;;;;;;30.40;17.85;;;7.90;99.90;;;;;;6065320;23;93217;-73
2022/11/30 06:00:22;;;;;;;34.13;19.10;;;7.80;99.90;;;;;;6063846;23;95730;-73
2022/11/30 06:02:54;;;;;;;35.25;18.15;;;7.80;99.90;;;;;;6088269;23;92471;-73
2022/11/30 06:05:21;;;;;;;30.02;18.95;;;7.90;99.90;;;;;;6065843;23;92462;-73
2022/11/30 06:07:48;;;;;;;31.92;18.30;;;7.90;99.90;;;;;;6063503;23;102196;-73
2022/11/30 06:10:16;;;;;;;31.77;18.55;;;7.90;99.90;;;;;;6065986;23;92966;-73
2022/11/30 06:12:42;;;;;;;33.30;18.35;;;7.90;99.90;;;;;;6065651;23;92873;-73
2022/11/30 06:15:10;;;;;;;30.77;18.38;;;8.00;99.90;;;;;;6065476;23;92390;-73
2022/11/30 06:17:37;;;;;;;33.55;19.02;;;8.00;99.90;;;;;;6063957;23;95470;-73
2022/11/30 06:20:05;;;;;;;32.33;18.27;;;8.00;99.90;;;;;;6065122;23;95454;-73
2022/11/30 06:22:32;;;;;;;30.38;18.52;;;8.00;99.90;;;;;;6064133;23;92413;-73
2022/11/30 06:24:59;;;;;;;28.98;17.38;;;8.00;99.90;;;;;;6039571;23;92352;-73
2022/11/30 06:27:30;;;;;;;32.00;18.00;;;8.00;99.90;;;;;;6063981;23;93230;-73
2022/11/30 06:29:57;;;;;;;25.08;16.27;;;8.00;99.90;;;;;;6065285;23;92821;-73
2022/11/30 06:32:24;;;;;;;25.75;15.85;;;8.00;99.90;;;;;;6064132;23;93119;-73
2022/11/30 06:34:51;;;;;;;27.58;17.13;;;7.90;99.90;;;;;;6039044;23;106990;-73
2022/11/30 06:37:18;;;;;;;27.33;16.75;;;7.90;99.90;;;;;;6063399;23;93190;-73
2022/11/30 06:39:45;;;;;;;29.38;18.33;;;7.80;99.90;;;;;;6065342;23;93145;-73
2022/11/30 06:42:32;;;;;;;22.88;15.65;;;7.80;99.90;;;;;;6062489;23;95347;-73
2022/11/30 06:44:59;;;;;;;23.73;16.02;;;7.80;99.90;;;;;;6064981;23;92415;-73
2022/11/30 06:47:26;;;;;;;23.90;15.32;;;7.70;99.90;;;;;;6065497;23;92989;-73
2022/11/30 06:49:54;;;;;;;25.10;15.98;;;7.70;99.90;;;;;;6064988;23;93018;-73
2022/11/30 06:52:21;;;;;;;25.40;15.18;;;7.70;99.90;;;;;;6065304;23;92426;-73
2022/11/30 06:54:48;;;;;;;23.63;15.77;;;7.70;99.90;;;;;;6088331;23;92373;-73
2022/11/30 06:57:15;;;;;;;22.77;15.20;;;7.70;99.90;;;;;;6087741;23;93088;-73
2022/11/30 06:59:42;;;;;;;22.40;14.90;;;7.70;99.90;;;;;;6063869;23;101066;-73
2022/11/30 07:02:14;;;;;;;20.27;13.73;;;7.70;99.90;;;;;;6065132;23;92435;-73
2022/11/30 07:04:44;;;;;;;21.70;14.80;;;7.70;99.90;;;;;;6088442;23;93030;-73
2022/11/30 07:07:11;;;;;;;21.88;14.10;;;7.60;99.90;;;;;;6086085;23;95696;-73
2022/11/30 07:09:38;;;;;;;21.38;15.05;;;7.60;99.90;;;;;;6065068;23;95293;-73
2022/11/30 07:12:06;;;;;;;20.40;13.52;;;7.70;99.90;;;;;;6087746;23;92323;-73
2022/11/30 07:14:32;;;;;;;22.10;14.32;;;7.60;99.90;;;;;;6063712;23;92585;-73
2022/11/30 07:17:03;;;;;;;25.05;14.32;;;7.60;99.90;;;;;;6064826;23;93072;-73
2022/11/30 07:19:33;;;;;;;24.90;14.75;;;7.50;99.90;;;;;;6063574;23;93012;-73
2022/11/30 07:22:00;;;;;;;27.08;17.88;;;7.50;99.90;;;;;;6087478;23;92444;-73
2022/11/30 07:27:13;;;;;;;22.67;15.18;;;7.40;99.90;;;;;;6064678;23;93150;-73
2022/11/30 07:29:39;;;;;;;25.75;16.05;;;7.40;99.90;;;;;;6087743;23;95663;-73
2022/11/30 07:32:06;;;;;;;22.98;14.95;;;7.40;99.90;;;;;;6062911;23;99133;-73
2022/11/30 07:34:33;;;;;;;16.88;12.68;;;7.40;99.90;;;;;;6064138;23;92413;-73
2022/11/30 07:37:00;;;;;;;20.90;13.30;;;7.50;99.90;;;;;;6062888;23;93255;-73
2022/11/30 07:39:27;;;;;;;19.48;12.80;;;7.40;99.90;;;;;;6064938;23;93024;-73
2022/11/30 07:41:54;;;;;;;18.52;12.68;;;7.40;99.90;;;;;;6064936;23;92396;-73
2022/11/30 07:44:24;;;;;;;20.88;13.77;;;7.40;99.90;;;;;;6063893;23;92536;-73
2022/11/30 07:46:51;;;;;;;15.30;9.88;;;7.40;99.90;;;;;;6063222;23;93056;-73
2022/11/30 07:49:18;;;;;;;17.67;12.52;;;7.40;99.90;;;;;;6065574;23;92801;-73
2022/11/30 07:51:45;;;;;;;19.23;13.00;;;7.40;99.90;;;;;;6087868;23;92426;-73
2022/11/30 07:54:12;;;;;;;16.85;12.77;;;7.40;99.90;;;;;;6062654;23;101196;-73
2022/11/30 07:56:39;;;;;;;17.60;13.77;;;7.50;99.90;;;;;;6063002;23;95438;-73
2022/11/30 07:59:06;;;;;;;17.80;12.95;;;7.50;99.90;;;;;;6064226;23;95557;-73
2022/11/30 08:01:33;;;;;;;19.55;13.15;;;7.60;99.90;;;;;;6066278;23;92292;-73
2022/11/30 08:04:00;;;;;;;17.40;12.25;;;7.60;99.90;;;;;;6064797;23;92488;-73
2022/11/30 08:06:29;;;;;;;19.80;13.18;;;7.60;99.90;;;;;;6065838;23;93243;-73
2022/11/30 08:08:59;;;;;;;16.92;12.85;;;7.50;99.90;;;;;;6088462;23;95680;-73
2022/11/30 08:11:29;;;;;;;16.58;11.20;;;7.50;99.90;;;;;;6088687;23;92354;-73
2022/11/30 08:13:56;;;;;;;15.73;11.38;;;7.50;99.90;;;;;;6064992;23;91784;-73
2022/11/30 08:16:25;;;;;;;15.98;12.02;;;7.50;99.90;;;;;;6087879;23;111575;-73
2022/11/30 08:18:57;;;;;;;16.95;12.57;;;7.50;99.90;;;;;;6088687;23;94381;-73
2022/11/30 08:21:25;;;;;;;17.10;12.25;;;7.50;99.90;;;;;;6064636;23;94676;-73
2022/11/30 08:23:55;;;;;;;17.40;12.40;;;7.50;99.90;;;;;;6089017;23;92442;-73
2022/11/30 08:26:23;;;;;;;17.80;12.60;;;7.50;99.90;;;;;;6065837;23;93185;-73
2022/11/30 08:28:51;;;;;;;16.92;13.05;;;7.50;99.90;;;;;;6088618;23;95814;-73
2022/11/30 08:31:21;;;;;;;18.10;13.10;;;7.50;99.90;;;;;;6065922;23;92412;-73
2022/11/30 08:33:49;;;;;;;20.80;13.15;;;7.50;99.90;;;;;;6089055;23;92454;-73
2022/11/30 08:36:18;;;;;;;18.10;13.10;;;7.50;99.90;;;;;;6064309;23;105848;-75
2022/11/30 08:38:46;;;;;;;23.23;14.90;;;7.50;99.90;;;;;;6064945;23;92989;-73
2022/11/30 08:41:17;;;;;;;19.35;13.18;;;7.50;99.90;;;;;;6088520;23;92899;-74
2022/11/30 08:43:45;;;;;;;20.27;14.25;;;7.50;99.90;;;;;;6066254;23;92846;-73
2022/11/30 08:46:13;;;;;;;22.63;14.98;;;7.60;99.90;;;;;;6064050;23;95485;-73
2022/11/30 08:49:01;;;;;;;20.73;15.23;;;7.60;99.90;;;;;;6064605;23;95358;-74
2022/11/30 08:51:47;;;;;;;18.95;13.95;;;7.60;99.90;;;;;;6066115;23;92293;-74
2022/11/30 08:54:34;;;;;;;24.23;15.02;;;7.60;99.90;;;;;;6089087;23;92423;-73
2022/11/30 08:57:01;;;;;;;22.60;14.88;;;7.60;99.90;;;;;;6063891;23;101652;-73
2022/11/30 08:59:30;;;;;;;22.58;15.20;;;7.70;99.90;;;;;;6065406;23;93073;-74
2022/11/30 09:01:57;;;;;;;23.58;14.73;;;7.70;99.90;;;;;;6088658;23;92891;-74
2022/11/30 09:04:24;;;;;;;21.20;13.35;;;7.70;99.90;;;;;;6066132;23;91656;-73
2022/11/30 09:06:51;;;;;;;22.67;14.85;;;7.80;99.90;;;;;;6063929;23;93214;-74
2022/11/30 09:09:18;;;;;;;26.63;15.27;;;7.80;99.90;;;;;;6063726;23;95734;-74
2022/11/30 09:11:45;;;;;;;22.02;14.43;;;7.90;99.90;;;;;;6064449;23;94695;-74
2022/11/30 09:14:12;;;;;;;21.00;13.55;;;7.90;99.90;;;;;;6065699;23;92431;-74
2022/11/30 09:16:39;;;;;;;19.98;14.05;;;8.00;99.90;;;;;;6064374;23;93347;-74
2022/11/30 09:19:06;;;;;;;22.20;13.98;;;8.00;99.90;;;;;;6064043;23;94088;-73
2022/11/30 09:21:33;;;;;;;23.75;14.95;;;8.00;99.90;;;;;;6064362;23;92407;-74
2022/11/30 09:24:00;;;;;;;21.25;13.43;;;8.00;99.90;;;;;;6039444;23;106839;-74
2022/11/30 09:26:27;;;;;;;19.17;14.02;;;7.90;99.90;;;;;;6039677;23;95618;-74
2022/11/30 09:28:54;;;;;;;22.73;15.32;;;7.90;99.90;;;;;;6064835;23;91818;-73
2022/11/30 09:31:25;;;;;;;24.35;15.82;;;7.80;99.90;;;;;;6064122;23;92506;-73
2022/11/30 09:33:54;;;;;;;25.33;15.13;;;7.90;99.90;;;;;;6065836;23;92444;-73
2022/11/30 09:36:25;;;;;;;24.35;16.05;;;8.00;99.90;;;;;;6063575;23;95662;-73
2022/11/30 09:38:53;;;;;;;20.02;13.75;;;8.00;99.90;;;;;;6064049;23;98579;-73
2022/11/30 09:41:58;;;;;;;24.73;14.48;;;8.00;99.90;;;;;;6064367;23;92472;-74
2022/11/30 09:44:44;;;;;;;26.35;14.80;;;8.10;99.90;;;;;;6065560;23;92372;-74
2022/11/30 09:47:20;;;;;;;25.55;15.05;;;8.00;99.90;;;;;;6065811;23;93265;-74
2022/11/30 09:49:47;;;;;;;27.45;15.85;;;8.00;99.90;;;;;;6063688;23;95500;-74
2022/11/30 09:52:36;;;;;;;24.17;16.00;;;7.90;99.90;;;;;;6065770;23;92355;-73
2022/11/30 09:55:08;;;;;;;24.73;15.10;;;8.00;99.90;;;;;;6064701;23;91937;-74
2022/11/30 09:57:47;;;;;;;24.60;15.45;;;7.90;99.90;;;;;;6088262;23;93280;-73
2022/11/30 10:00:14;;;;;;;26.42;15.93;;;8.00;99.90;;;;;;6063824;23;95821;-74
2022/11/30 10:02:42;;;;;;;23.63;15.48;;;7.90;99.90;;;;;;6064089;23;94815;-74
2022/11/30 10:05:19;;;;;;;26.25;16.13;;;8.00;99.90;;;;;;6065861;23;92808;-73
2022/11/30 10:08:09;;;;;;;25.10;16.08;;;8.00;99.90;;;;;;6039746;23;95678;-73
2022/11/30 10:10:40;;;;;;;28.48;16.13;;;8.10;99.90;;;;;;6063788;23;95513;-74
2022/11/30 10:13:28;;;;;;;25.73;16.98;;;8.00;99.90;;;;;;6039902;23;92363;-74
2022/11/30 10:16:19;;;;;;;28.35;16.70;;;8.10;99.90;;;;;;6065671;23;92377;-73
2022/11/30 10:18:58;;;;;;;31.67;17.73;;;8.10;99.90;;;;;;6088282;23;95805;-73
2022/11/30 10:22:00;;;;;;;30.85;16.38;;;8.00;99.90;;;;;;6064202;23;95368;-73
2022/11/30 10:24:39;;;;;;;32.08;18.08;;;8.20;99.90;;;;;;6088412;23;92619;-73
2022/11/30 10:27:37;;;;;;;31.88;19.05;;;8.20;99.90;;;;;;6065782;23;92902;-73
2022/11/30 10:30:13;;;;;;;31.98;19.42;;;8.30;99.90;;;;;;6062440;23;95624;-73
2022/11/30 10:32:42;;;;;;;33.33;19.08;;;8.30;99.90;;;;;;6063631;23;95358;-74
2022/11/30 10:35:34;;;;;;;29.38;16.45;;;8.30;99.90;;;;;;6088055;23;92532;-73
2022/11/30 10:38:13;;;;;;;28.92;18.85;;;8.40;99.90;;;;;;6063768;23;92319;-73
2022/11/30 10:40:53;;;;;;;32.17;19.23;;;8.40;99.90;;;;;;6065217;23;93031;-73
2022/11/30 10:43:24;;;;;;;27.95;16.77;;;8.50;99.90;;;;;;6088289;23;92903;-73
2022/11/30 10:45:51;;;;;;;27.67;17.83;;;8.50;99.90;;;;;;6088624;23;92634;-73
2022/11/30 10:48:31;;;;;;;33.15;17.85;;;8.40;99.90;;;;;;6065779;23;91794;-74
2022/11/30 10:50:59;;;;;;;26.92;15.90;;;8.50;99.90;;;;;;6063937;23;93881;-74
2022/11/30 10:53:27;;;;;;;27.02;16.55;;;8.50;99.90;;;;;;6063372;23;92523;-73
2022/11/30 10:56:12;;;;;;;28.83;17.13;;;8.50;99.90;;;;;;6038061;23;94873;-74
2022/11/30 10:58:49;;;;;;;31.00;17.75;;;8.60;99.90;;;;;;6065145;23;92443;-74
2022/11/30 11:01:35;;;;;;;28.23;17.38;;;8.50;99.90;;;;;;6065290;23;93212;-74
2022/11/30 11:04:11;;;;;;;30.02;18.08;;;8.50;99.90;;;;;;6063819;23;95360;-74
2022/11/30 11:06:46;;;;;;;27.52;17.35;;;8.50;99.90;;;;;;6039624;23;92951;-75
2022/11/30 11:09:36;;;;;;;33.70;19.23;;;8.50;99.90;;;;;;6063737;23;92435;-74
2022/11/30 11:12:13;;;;;;;33.15;20.40;;;8.50;99.90;;;;;;6065162;23;93113;-74
2022/11/30 11:14:40;;;;;;;34.47;19.25;;;8.40;99.90;;;;;;6063703;23;96031;-74
2022/11/30 11:17:25;;;;;;;30.38;18.70;;;8.30;99.90;;;;;;6063587;23;92452;-74
2022/11/30 11:19:52;;;;;;;35.25;19.42;;;8.40;99.90;;;;;;6065111;23;92881;-74
2022/11/30 11:22:25;;;;;;;33.35;19.15;;;8.20;99.90;;;;;;6063465;23;95492;-74
2022/11/30 11:25:18;;;;;;;36.03;18.92;;;8.30;99.90;;;;;;6064631;23;95635;-74
2022/11/30 11:27:54;;;;;;;39.78;20.90;;;8.30;99.90;;;;;;6065037;23;93318;-74
2022/11/30 11:30:24;;;;;;;43.15;21.88;;;8.20;99.90;;;;;;6034249;23;98578;-74
2022/11/30 11:33:11;;;;;;;44.85;22.92;;;8.20;99.90;;;;;;6036938;23;94203;-74
2022/11/30 11:35:51;;;;;;;43.38;21.80;;;8.30;99.90;;;;;;6034981;23;95508;-74
2022/11/30 11:38:29;;;;;;;38.03;21.10;;;8.30;99.90;;;;;;6037173;23;92775;-74
2022/11/30 11:41:05;;;;;;;43.67;20.08;;;8.30;99.90;;;;;;6037642;23;91650;-74
2022/11/30 11:43:54;;;;;;;45.70;23.33;;;8.20;99.90;;;;;;6036974;23;93162;-74
2022/11/30 11:46:21;;;;;;;45.13;23.08;;;8.20;99.90;;;;;;6037128;23;92890;-74
2022/11/30 11:49:18;;;;;;;53.20;26.20;;;8.30;99.90;;;;;;6009602;23;98438;-75
2022/11/30 11:51:45;;;;;;;51.83;24.65;;;8.30;99.90;;;;;;6020465;23;92437;-74
2022/11/30 11:54:12;;;;;;;53.67;27.08;;;8.30;99.90;;;;;;6010260;23;114344;-74
2022/11/30 11:56:39;;;;;;;42.60;23.02;;;8.40;99.90;;;;;;6034965;23;95481;-74
2022/11/30 11:59:09;;;;;;;46.92;23.85;;;8.40;99.90;;;;;;6037134;23;92296;-74
2022/11/30 12:02:00;;;;;;;52.00;25.52;;;8.30;99.90;;;;;;6036966;23;92360;-75
2022/11/30 12:04:44;;;;;;;50.30;25.08;;;8.30;99.90;;;;;;6036927;23;93300;-74
2022/11/30 12:07:30;;;;;;;60.28;26.80;;;8.30;99.90;;;;;;6035996;23;92964;-74
2022/11/30 12:10:35;;;;;;;63.25;29.35;;;8.30;99.90;;;;;;6011076;23;92800;-74
2022/11/30 12:13:32;;;;;;;60.75;26.25;;;8.30;99.90;;;;;;6036957;23;92418;-74
2022/11/30 12:16:24;;;;;;;67.68;29.77;;;8.20;99.90;;;;;;6035000;23;95619;-74
2022/11/30 12:19:24;;;;;;;56.72;26.98;;;8.10;99.90;;;;;;5982627;23;95250;-74
2022/11/30 12:22:09;;;;;;;59.70;27.83;;;8.00;99.90;;;;;;5989790;23;92542;-74
2022/11/30 12:25:02;;;;;;;73.88;31.10;;;7.90;99.90;;;;;;6035374;23;92586;-74
2022/11/30 12:28:02;;;;;;;63.40;26.08;;;7.90;99.90;;;;;;6036846;23;92458;-75
2022/11/30 12:30:57;;;;;;;60.83;27.02;;;8.00;99.90;;;;;;5987512;23;95577;-74
2022/11/30 12:33:35;;;;;;;67.18;29.35;;;8.00;99.90;;;;;;6036951;23;92380;-74
2022/11/30 12:36:27;;;;;;;67.50;30.08;;;7.90;99.90;;;;;;5987531;23;94670;-74
2022/11/30 12:39:06;;;;;;;68.32;31.48;;;8.00;99.90;;;;;;6036519;23;93129;-74
2022/11/30 12:41:49;;;;;;;64.88;29.73;;;7.90;99.90;;;;;;6036231;23;92840;-74
2022/11/30 12:44:27;;;;;;;61.00;28.10;;;8.00;99.90;;;;;;6035522;23;95642;-74
2022/11/30 12:47:26;;;;;;;61.05;29.02;;;8.10;99.90;;;;;;5987401;23;92546;-74
2022/11/30 12:50:10;;;;;;;53.58;26.13;;;8.10;99.90;;;;;;6004938;23;93155;-75
2022/11/30 12:52:44;;;;;;;;;;;8.20;99.90;;;;;;6035461;23;95521;-74
2022/11/30 12:55:27;;;;;;;51.50;24.48;;;8.10;99.90;;;;;;6013446;23;92453;-74
2022/11/30 12:58:13;;;;;;;56.20;29.88;;;8.20;99.90;;;;;;6036666;23;92412;-74
2022/11/30 13:01:08;;;;;;;48.05;25.38;;;8.20;99.90;;;;;;6034976;23;95688;-74
2022/11/30 13:03:44;;;;;;;48.28;25.58;;;8.20;99.90;;;;;;6037158;23;93242;-74